Moby Baby — ICEM — position and weather

sailwx.info

Track history (hours):
 
Tides and Currents Weather Stations Pressure Air Temp Water Temp Dewpoint Dewpoint Depression Visibility Wind Speed Wind Dir Waves Ship Positions

Moby Baby

Last reported at 2016-Jul-23 22:24 UTC. Time now 2016-Jul-24 03:01 UTC.
Position N 42°49' E 010°19'.

; draft 4.5 m.

Type: Ship. MMSI: 247049900.

Date/timePositionNaut miles runAvg speedWind from/ knotsBaromVisibWave heightAir tempDewpointWater temp
2016-Jul-23 22:24N 42°49' E 010°19'0 0.0
2016-Jul-23 21:32N 42°49' E 010°19'0 0.0
2016-Jul-23 20:33N 42°49' E 010°19'0 0.1
2016-Jul-23 19:29N 42°49' E 010°19'13 9.6
2016-Jul-23 18:10N 42°56' E 010°33'914.3
2016-Jul-23 17:33N 42°52' E 010°23'3 3.3
2016-Jul-23 16:33N 42°53' E 010°27'3 3.5
2016-Jul-23 15:33N 42°54' E 010°31'10 8.3
2016-Jul-23 14:23N 42°49' E 010°20'12 2.5
2016-Jul-23 09:31N 42°56' E 010°33'13 5.9
2016-Jul-23 07:22N 42°49' E 010°19'0 0.0
2016-Jul-23 01:32N 42°49' E 010°19'0 0.0
2016-Jul-23 00:33N 42°49' E 010°19'0 0.0
2016-Jul-22 23:34N 42°49' E 010°19'0 0.0
2016-Jul-22 22:13N 42°49' E 010°19'0 0.0
2016-Jul-22 21:32N 42°49' E 010°19'0 0.0
2016-Jul-22 20:17N 42°49' E 010°19'0 0.0
2016-Jul-22 19:32N 42°49' E 010°19'1212.7
2016-Jul-22 18:33N 42°56' E 010°33'7 6.9
2016-Jul-22 17:33N 42°53' E 010°25'6 5.7
2016-Jul-22 16:34N 42°49' E 010°19'7 6.6
2016-Jul-22 15:33N 42°53' E 010°26'6 5.8
2016-Jul-22 14:33N 42°56' E 010°33'1212.3
2016-Jul-22 13:34N 42°49' E 010°19'7 6.9
2016-Jul-22 12:33N 42°53' E 010°26'6 2.0
2016-Jul-22 09:33N 42°56' E 010°34'1312.7
2016-Jul-22 08:33N 42°49' E 010°19'0 0.0
2016-Jul-22 07:33N 42°49' E 010°19'8 8.5
2016-Jul-22 06:33N 42°54' E 010°28'8 4.2
2016-Jul-22 04:33N 42°49' E 010°19'0 0.0
2016-Jul-22 03:33N 42°49' E 010°19'0 0.0
2016-Jul-22 02:32N 42°49' E 010°19'0 0.0
2016-Jul-22 01:33N 42°49' E 010°19'0 0.0
2016-Jul-22 00:29N 42°49' E 010°19'0 0.0
2016-Jul-21 23:26N 42°49' E 010°19'0 0.0
2016-Jul-21 22:24N 42°49' E 010°19'0 0.0
2016-Jul-21 21:33N 42°49' E 010°19'0 0.0
2016-Jul-21 20:30N 42°49' E 010°19'0 0.2
2016-Jul-21 19:27N 42°49' E 010°20'6 3.0
2016-Jul-21 17:34N 42°53' E 010°25'6 3.9
2016-Jul-21 16:06N 42°49' E 010°20'814.1
2016-Jul-21 15:31N 42°53' E 010°28'5 4.7
2016-Jul-21 14:33N 42°56' E 010°34'1312.7
2016-Jul-21 13:33N 42°49' E 010°19'9 8.8
2016-Jul-21 12:33N 42°54' E 010°29'4 1.3
2016-Jul-21 09:32N 42°56' E 010°34'1312.9
2016-Jul-21 08:32N 42°49' E 010°19'0 0.0
2016-Jul-21 07:33N 42°49' E 010°19'9 8.9
2016-Jul-21 06:32N 42°54' E 010°29'4 3.6
2016-Jul-21 05:30N 42°56' E 010°34'1313.4
2016-Jul-21 04:33N 42°49' E 010°19'0 0.1
2016-Jul-21 03:33N 42°49' E 010°19'0 0.0
2016-Jul-21 02:32N 42°49' E 010°19'0 0.0
2016-Jul-21 00:11N 42°49' E 010°19'0 0.0
2016-Jul-20 21:21N 42°49' E 010°19'0 0.0
2016-Jul-20 20:33N 42°49' E 010°19'0 0.0
2016-Jul-20 19:30N 42°49' E 010°19'13 9.2
2016-Jul-20 18:07N 42°56' E 010°34'713.3
2016-Jul-20 17:33N 42°53' E 010°24'5 5.1
2016-Jul-20 16:30N 42°49' E 010°19'6 6.6
2016-Jul-20 15:34N 42°53' E 010°26'7 6.2
2016-Jul-20 14:30N 42°56' E 010°33'13 9.6
2016-Jul-20 13:11N 42°49' E 010°19'6 9.6
2016-Jul-20 12:33N 42°53' E 010°25'7 2.2
2016-Jul-20 09:29N 42°56' E 010°33'1313.5
2016-Jul-20 08:33N 42°49' E 010°19'0 0.1
2016-Jul-20 07:33N 42°49' E 010°19'8 8.2
2016-Jul-20 06:34N 42°53' E 010°28'5 4.3
2016-Jul-20 05:29N 42°56' E 010°33'1313.7
2016-Jul-20 04:33N 42°49' E 010°19'0 0.1
2016-Jul-20 03:33N 42°49' E 010°19'0 0.0
2016-Jul-20 02:34N 42°49' E 010°19'0 0.0
2016-Jul-20 01:31N 42°49' E 010°19'0 0.0
2016-Jul-20 00:32N 42°49' E 010°19'0 0.0
2016-Jul-19 21:21N 42°49' E 010°19'0 0.0
2016-Jul-19 20:29N 42°49' E 010°19'0 0.0
2016-Jul-19 19:34N 42°49' E 010°19'1312.7
2016-Jul-19 18:33N 42°56' E 010°34'7 7.1
2016-Jul-19 17:33N 42°53' E 010°25'0 0.2
2016-Jul-19 15:33N 42°53' E 010°25'6 6.3
2016-Jul-19 14:32N 42°56' E 010°33'1212.4
2016-Jul-19 13:33N 42°49' E 010°19'6 6.1
2016-Jul-19 12:34N 42°53' E 010°26'6 5.2
2016-Jul-19 11:22N 42°56' E 010°33'0 0.2
2016-Jul-19 09:32N 42°56' E 010°33'1312.3
2016-Jul-19 08:30N 42°49' E 010°19'0 0.0
2016-Jul-19 07:21N 42°49' E 010°19'911.1
2016-Jul-19 06:34N 42°54' E 010°29'9 4.4
2016-Jul-19 04:33N 42°49' E 010°19'0 0.1
2016-Jul-19 03:29N 42°49' E 010°19'0 0.0
2016-Jul-19 02:32N 42°49' E 010°19'0 0.0
2016-Jul-19 01:33N 42°49' E 010°19'0 0.0
2016-Jul-18 22:12N 42°49' E 010°19'0 0.0
2016-Jul-18 21:27N 42°49' E 010°19'0 0.0
2016-Jul-18 20:30N 42°49' E 010°19'0 0.0
2016-Jul-18 19:33N 42°49' E 010°19'12 8.6
2016-Jul-18 18:08N 42°56' E 010°33'711.5
2016-Jul-18 17:33N 42°53' E 010°25'6 5.7
2016-Jul-18 16:33N 42°49' E 010°19'6 6.1
2016-Jul-18 15:33N 42°53' E 010°25'7 6.3
2016-Jul-18 14:30N 42°56' E 010°33'13 9.0
2016-Jul-18 13:06N 42°49' E 010°19'713.0
2016-Jul-18 12:33N 42°53' E 010°27'6 1.8
2016-Jul-18 09:29N 42°56' E 010°33'1313.7
2016-Jul-18 08:33N 42°49' E 010°19'0 0.1
2016-Jul-18 07:24N 42°49' E 010°19'910.1
2016-Jul-18 06:31N 42°54' E 010°29'4 3.8
2016-Jul-18 05:29N 42°56' E 010°33'13 4.3
2016-Jul-18 02:31N 42°49' E 010°19'0 0.0
2016-Jul-17 22:21N 42°49' E 010°19'0 0.0
2016-Jul-17 21:09N 42°49' E 010°19'0 0.0
2016-Jul-17 20:31N 42°49' E 010°19'1 0.8
2016-Jul-17 19:21N 42°49' E 010°21'1215.1
2016-Jul-17 18:34N 42°56' E 010°34'7 7.3
2016-Jul-17 17:33N 42°53' E 010°25'6 5.2
2016-Jul-17 16:29N 42°49' E 010°19'6 6.4
2016-Jul-17 15:33N 42°53' E 010°25'7 6.3
2016-Jul-17 14:28N 42°56' E 010°34'1313.9
2016-Jul-17 13:33N 42°49' E 010°19'7 6.5
2016-Jul-17 12:32N 42°53' E 010°26'6 2.1
2016-Jul-17 09:31N 42°56' E 010°33'12 5.0
2016-Jul-17 07:06N 42°49' E 010°20'1 0.1
2016-Jul-16 22:32N 42°49' E 010°19'0 0.0
2016-Jul-16 21:33N 42°49' E 010°19'0 0.0
2016-Jul-16 20:24N 42°49' E 010°19'910.6
2016-Jul-16 19:33N 42°54' E 010°29'2 1.6
2016-Jul-16 18:34N 42°54' E 010°31'10 9.8
2016-Jul-16 17:31N 42°49' E 010°19'13 8.8
2016-Jul-16 16:04N 42°56' E 010°33'712.9
2016-Jul-16 15:34N 42°53' E 010°26'5 5.1
2016-Jul-16 14:33N 42°49' E 010°21'1110.0
2016-Jul-16 13:27N 42°56' E 010°33'4 4.0
2016-Jul-16 12:33N 42°53' E 010°29'9 6.8
2016-Jul-16 11:17N 42°49' E 010°19'1112.7
2016-Jul-16 10:26N 42°54' E 010°32'2 2.4
2016-Jul-16 09:33N 42°56' E 010°33'12 0.3
2016-Jul-14 19:25N 42°49' E 010°20'12 9.3
2016-Jul-14 18:07N 42°56' E 010°34'813.7
2016-Jul-14 17:33N 42°53' E 010°24'5 3.6
2016-Jul-14 16:04N 42°49' E 010°19'11 6.6
2016-Jul-14 14:24N 42°54' E 010°32'1112.6
2016-Jul-14 13:31N 42°49' E 010°19'7 7.1
2016-Jul-14 12:34N 42°53' E 010°27'  
Track history (hours):
 
Tides and Currents Weather Stations Pressure Air Temp Water Temp Dewpoint Dewpoint Depression Visibility Wind Speed Wind Dir Waves Ship Positions

Moby Baby

Last reported at 2016-Jul-23 22:24 UTC. Time now 2016-Jul-24 03:01 UTC.
Position N 42°49' E 010°19'.

; draft 4.5 m.

Type: Ship. MMSI: 247049900.

Date/timePositionNaut miles runAvg speedWind from/ knotsBaromVisibWave heightAir tempDewpointWater temp
2016-Jul-23 22:24N 42°49' E 010°19'0 0.0
2016-Jul-23 21:32N 42°49' E 010°19'0 0.0
2016-Jul-23 20:33N 42°49' E 010°19'0 0.1
2016-Jul-23 19:29N 42°49' E 010°19'13 9.6
2016-Jul-23 18:10N 42°56' E 010°33'914.3
2016-Jul-23 17:33N 42°52' E 010°23'3 3.3
2016-Jul-23 16:33N 42°53' E 010°27'3 3.5
2016-Jul-23 15:33N 42°54' E 010°31'10 8.3
2016-Jul-23 14:23N 42°49' E 010°20'12 2.5
2016-Jul-23 09:31N 42°56' E 010°33'13 5.9
2016-Jul-23 07:22N 42°49' E 010°19'0 0.0
2016-Jul-23 01:32N 42°49' E 010°19'0 0.0
2016-Jul-23 00:33N 42°49' E 010°19'0 0.0
2016-Jul-22 23:34N 42°49' E 010°19'0 0.0
2016-Jul-22 22:13N 42°49' E 010°19'0 0.0
2016-Jul-22 21:32N 42°49' E 010°19'0 0.0
2016-Jul-22 20:17N 42°49' E 010°19'0 0.0
2016-Jul-22 19:32N 42°49' E 010°19'1212.7
2016-Jul-22 18:33N 42°56' E 010°33'7 6.9
2016-Jul-22 17:33N 42°53' E 010°25'6 5.7
2016-Jul-22 16:34N 42°49' E 010°19'7 6.6
2016-Jul-22 15:33N 42°53' E 010°26'6 5.8
2016-Jul-22 14:33N 42°56' E 010°33'1212.3
2016-Jul-22 13:34N 42°49' E 010°19'7 6.9
2016-Jul-22 12:33N 42°53' E 010°26'6 2.0
2016-Jul-22 09:33N 42°56' E 010°34'1312.7
2016-Jul-22 08:33N 42°49' E 010°19'0 0.0
2016-Jul-22 07:33N 42°49' E 010°19'8 8.5
2016-Jul-22 06:33N 42°54' E 010°28'8 4.2
2016-Jul-22 04:33N 42°49' E 010°19'0 0.0
2016-Jul-22 03:33N 42°49' E 010°19'0 0.0
2016-Jul-22 02:32N 42°49' E 010°19'0 0.0
2016-Jul-22 01:33N 42°49' E 010°19'0 0.0
2016-Jul-22 00:29N 42°49' E 010°19'0 0.0
2016-Jul-21 23:26N 42°49' E 010°19'0 0.0
2016-Jul-21 22:24N 42°49' E 010°19'0 0.0
2016-Jul-21 21:33N 42°49' E 010°19'0 0.0
2016-Jul-21 20:30N 42°49' E 010°19'0 0.2
2016-Jul-21 19:27N 42°49' E 010°20'6 3.0
2016-Jul-21 17:34N 42°53' E 010°25'6 3.9
2016-Jul-21 16:06N 42°49' E 010°20'814.1
2016-Jul-21 15:31N 42°53' E 010°28'5 4.7
2016-Jul-21 14:33N 42°56' E 010°34'1312.7
2016-Jul-21 13:33N 42°49' E 010°19'9 8.8
2016-Jul-21 12:33N 42°54' E 010°29'4 1.3
2016-Jul-21 09:32N 42°56' E 010°34'1312.9
2016-Jul-21 08:32N 42°49' E 010°19'0 0.0
2016-Jul-21 07:33N 42°49' E 010°19'9 8.9
2016-Jul-21 06:32N 42°54' E 010°29'4 3.6
2016-Jul-21 05:30N 42°56' E 010°34'1313.4
2016-Jul-21 04:33N 42°49' E 010°19'0 0.1
2016-Jul-21 03:33N 42°49' E 010°19'0 0.0
2016-Jul-21 02:32N 42°49' E 010°19'0 0.0
2016-Jul-21 00:11N 42°49' E 010°19'0 0.0
2016-Jul-20 21:21N 42°49' E 010°19'0 0.0
2016-Jul-20 20:33N 42°49' E 010°19'0 0.0
2016-Jul-20 19:30N 42°49' E 010°19'13 9.2
2016-Jul-20 18:07N 42°56' E 010°34'713.3
2016-Jul-20 17:33N 42°53' E 010°24'5 5.1
2016-Jul-20 16:30N 42°49' E 010°19'6 6.6
2016-Jul-20 15:34N 42°53' E 010°26'7 6.2
2016-Jul-20 14:30N 42°56' E 010°33'13 9.6
2016-Jul-20 13:11N 42°49' E 010°19'6 9.6
2016-Jul-20 12:33N 42°53' E 010°25'7 2.2
2016-Jul-20 09:29N 42°56' E 010°33'1313.5
2016-Jul-20 08:33N 42°49' E 010°19'0 0.1
2016-Jul-20 07:33N 42°49' E 010°19'8 8.2
2016-Jul-20 06:34N 42°53' E 010°28'5 4.3
2016-Jul-20 05:29N 42°56' E 010°33'1313.7
2016-Jul-20 04:33N 42°49' E 010°19'0 0.1
2016-Jul-20 03:33N 42°49' E 010°19'0 0.0
2016-Jul-20 02:34N 42°49' E 010°19'0 0.0
2016-Jul-20 01:31N 42°49' E 010°19'0 0.0
2016-Jul-20 00:32N 42°49' E 010°19'0 0.0
2016-Jul-19 21:21N 42°49' E 010°19'0 0.0
2016-Jul-19 20:29N 42°49' E 010°19'0 0.0
2016-Jul-19 19:34N 42°49' E 010°19'1312.7
2016-Jul-19 18:33N 42°56' E 010°34'7 7.1
2016-Jul-19 17:33N 42°53' E 010°25'0 0.2
2016-Jul-19 15:33N 42°53' E 010°25'6 6.3
2016-Jul-19 14:32N 42°56' E 010°33'1212.4
2016-Jul-19 13:33N 42°49' E 010°19'6 6.1
2016-Jul-19 12:34N 42°53' E 010°26'6 5.2
2016-Jul-19 11:22N 42°56' E 010°33'0 0.2
2016-Jul-19 09:32N 42°56' E 010°33'1312.3
2016-Jul-19 08:30N 42°49' E 010°19'0 0.0
2016-Jul-19 07:21N 42°49' E 010°19'911.1
2016-Jul-19 06:34N 42°54' E 010°29'9 4.4
2016-Jul-19 04:33N 42°49' E 010°19'0 0.1
2016-Jul-19 03:29N 42°49' E 010°19'0 0.0
2016-Jul-19 02:32N 42°49' E 010°19'0 0.0
2016-Jul-19 01:33N 42°49' E 010°19'0 0.0
2016-Jul-18 22:12N 42°49' E 010°19'0 0.0
2016-Jul-18 21:27N 42°49' E 010°19'0 0.0
2016-Jul-18 20:30N 42°49' E 010°19'0 0.0
2016-Jul-18 19:33N 42°49' E 010°19'12 8.6
2016-Jul-18 18:08N 42°56' E 010°33'711.5
2016-Jul-18 17:33N 42°53' E 010°25'6 5.7
2016-Jul-18 16:33N 42°49' E 010°19'6 6.1
2016-Jul-18 15:33N 42°53' E 010°25'7 6.3
2016-Jul-18 14:30N 42°56' E 010°33'13 9.0
2016-Jul-18 13:06N 42°49' E 010°19'713.0
2016-Jul-18 12:33N 42°53' E 010°27'6 1.8
2016-Jul-18 09:29N 42°56' E 010°33'1313.7
2016-Jul-18 08:33N 42°49' E 010°19'0 0.1
2016-Jul-18 07:24N 42°49' E 010°19'910.1
2016-Jul-18 06:31N 42°54' E 010°29'4 3.8
2016-Jul-18 05:29N 42°56' E 010°33'13 4.3
2016-Jul-18 02:31N 42°49' E 010°19'0 0.0
2016-Jul-17 22:21N 42°49' E 010°19'0 0.0
2016-Jul-17 21:09N 42°49' E 010°19'0 0.0
2016-Jul-17 20:31N 42°49' E 010°19'1 0.8
2016-Jul-17 19:21N 42°49' E 010°21'1215.1
2016-Jul-17 18:34N 42°56' E 010°34'7 7.3
2016-Jul-17 17:33N 42°53' E 010°25'6 5.2
2016-Jul-17 16:29N 42°49' E 010°19'6 6.4
2016-Jul-17 15:33N 42°53' E 010°25'7 6.3
2016-Jul-17 14:28N 42°56' E 010°34'1313.9
2016-Jul-17 13:33N 42°49' E 010°19'7 6.5
2016-Jul-17 12:32N 42°53' E 010°26'6 2.1
2016-Jul-17 09:31N 42°56' E 010°33'12 5.0
2016-Jul-17 07:06N 42°49' E 010°20'1 0.1
2016-Jul-16 22:32N 42°49' E 010°19'0 0.0
2016-Jul-16 21:33N 42°49' E 010°19'0 0.0
2016-Jul-16 20:24N 42°49' E 010°19'910.6
2016-Jul-16 19:33N 42°54' E 010°29'2 1.6
2016-Jul-16 18:34N 42°54' E 010°31'10 9.8
2016-Jul-16 17:31N 42°49' E 010°19'13 8.8
2016-Jul-16 16:04N 42°56' E 010°33'712.9
2016-Jul-16 15:34N 42°53' E 010°26'5 5.1
2016-Jul-16 14:33N 42°49' E 010°21'1110.0
2016-Jul-16 13:27N 42°56' E 010°33'4 4.0
2016-Jul-16 12:33N 42°53' E 010°29'9 6.8
2016-Jul-16 11:17N 42°49' E 010°19'1112.7
2016-Jul-16 10:26N 42°54' E 010°32'2 2.4
2016-Jul-16 09:33N 42°56' E 010°33'12 0.3
2016-Jul-14 19:25N 42°49' E 010°20'12 9.3
2016-Jul-14 18:07N 42°56' E 010°34'813.7
2016-Jul-14 17:33N 42°53' E 010°24'5 3.6
2016-Jul-14 16:04N 42°49' E 010°19'11 6.6
2016-Jul-14 14:24N 42°54' E 010°32'1112.6
2016-Jul-14 13:31N 42°49' E 010°19'7 7.1
2016-Jul-14 12:34N 42°53' E 010°27'  

Dump ship's entire track history